Time;durP1;ratioP1;P1;durP2;ratioP2;P2;SDS_P1;SDS_P2;PMS_P1;PMS_P2;Temp;Humidity;BMP_temperature;BMP_pressure;BME280_temperature;BME280_humidity;BME280_pressure;Samples;Min_cycle;Max_cycle;Signal;HPM_P1;HPM_P2
2023/04/30 00:01:44;;;;;;;;;7.33;4.00;;;;;;;;5035769;28;45594;-85
2023/04/30 00:04:10;;;;;;;;;7.33;6.00;;;;;;;;5035836;28;45441;-85
2023/04/30 00:06:35;;;;;;;;;10.00;6.00;;;;;;;;5017762;28;45584;-84
2023/04/30 00:09:00;;;;;;;;;8.00;6.33;;;;;;;;5035181;28;47063;-85
2023/04/30 00:11:25;;;;;;;;;8.00;6.00;;;;;;;;5035703;28;45499;-84
2023/04/30 00:13:51;;;;;;;;;6.00;5.33;;;;;;;;5035096;28;45381;-84
2023/04/30 00:16:16;;;;;;;;;9.50;7.25;;;;;;;;5038594;28;45583;-84
2023/04/30 00:18:41;;;;;;;;;9.50;7.25;;;;;;;;5038875;28;46287;-84
2023/04/30 00:21:07;;;;;;;;;11.67;8.00;;;;;;;;5021063;28;45334;-85
2023/04/30 00:23:32;;;;;;;;;2.50;0.00;;;;;;;;5039131;28;45413;-84
2023/04/30 00:25:57;;;;;;;;;13.67;8.00;;;;;;;;5039077;28;45313;-84
2023/04/30 00:28:22;;;;;;;;;8.67;7.00;;;;;;;;5038204;28;45476;-83
2023/04/30 00:30:48;;;;;;;;;11.33;9.00;;;;;;;;5038578;28;45334;-83
2023/04/30 00:33:13;;;;;;;;;7.75;7.00;;;;;;;;5038796;28;45421;-84
2023/04/30 00:35:38;;;;;;;;;9.00;6.67;;;;;;;;5038916;28;45402;-84
2023/04/30 00:38:03;;;;;;;;;10.00;6.00;;;;;;;;5020844;28;47961;-84
2023/04/30 00:40:28;;;;;;;;;10.33;8.67;;;;;;;;5038729;28;45457;-84
2023/04/30 00:42:54;;;;;;;;;12.33;7.33;;;;;;;;5038621;28;45294;-84
2023/04/30 00:45:21;;;;;;;;;9.25;7.25;;;;;;;;5036690;28;45356;-84
2023/04/30 00:47:46;;;;;;;;;9.00;6.00;;;;;;;;5038405;28;47241;-84
2023/04/30 00:50:14;;;;;;;;;9.75;6.75;;;;;;;;5038415;28;45381;-84
2023/04/30 00:52:39;;;;;;;;;11.00;8.50;;;;;;;;5038483;28;45238;-84
2023/04/30 00:55:05;;;;;;;;;11.67;7.67;;;;;;;;5038525;28;45267;-83
2023/04/30 00:57:30;;;;;;;;;9.00;7.00;;;;;;;;5019940;28;47228;-83
2023/04/30 00:59:55;;;;;;;;;7.33;4.00;;;;;;;;5038460;28;45412;-84
2023/04/30 01:02:21;;;;;;;;;8.75;6.75;;;;;;;;5038360;28;45333;-84
2023/04/30 01:04:47;;;;;;;;;9.75;7.00;;;;;;;;5038638;28;45280;-83
2023/04/30 01:07:12;;;;;;;;;10.25;8.00;;;;;;;;5038261;28;45290;-83
2023/04/30 01:09:37;;;;;;;;;11.75;7.25;;;;;;;;5037582;28;45421;-82
2023/04/30 01:12:21;;;;;;;;;11.33;6.33;;;;;;;;5037882;28;45254;-82
2023/04/30 01:14:55;;;;;;;;;9.25;6.75;;;;;;;;5038324;28;45374;-83
2023/04/30 01:17:26;;;;;;;;;6.00;4.00;;;;;;;;5038281;28;45505;-84
2023/04/30 01:19:52;;;;;;;;;13.50;9.00;;;;;;;;5038049;28;45629;-84
2023/04/30 01:22:26;;;;;;;;;13.00;7.25;;;;;;;;5037971;28;45277;-83
2023/04/30 01:25:05;;;;;;;;;6.75;6.00;;;;;;;;5038008;28;45298;-83
2023/04/30 01:27:49;;;;;;;;;7.25;7.00;;;;;;;;5019301;28;48560;-84
2023/04/30 01:30:16;;;;;;;;;11.75;7.50;;;;;;;;5036518;28;45820;-85
2023/04/30 01:32:41;;;;;;;;;11.25;7.50;;;;;;;;5038101;28;45238;-86
2023/04/30 01:35:07;;;;;;;;;8.33;6.00;;;;;;;;5037994;28;45296;-83
2023/04/30 01:37:32;;;;;;;;;10.50;6.00;;;;;;;;5037816;28;46377;-84
2023/04/30 01:39:57;;;;;;;;;9.00;6.00;;;;;;;;5037758;28;45304;-83
2023/04/30 01:42:29;;;;;;;;;11.00;7.00;;;;;;;;5038011;28;45408;-83
2023/04/30 01:45:11;;;;;;;;;10.75;6.00;;;;;;;;5037648;28;45432;-84
2023/04/30 01:47:45;;;;;;;;;14.25;9.50;;;;;;;;5037720;28;45483;-83
2023/04/30 01:50:19;;;;;;;;;12.75;7.50;;;;;;;;5037791;28;45270;-84
2023/04/30 01:52:47;;;;;;;;;8.75;7.00;;;;;;;;5037787;28;45459;-84
2023/04/30 01:55:27;;;;;;;;;12.00;6.00;;;;;;;;5037348;28;45524;-84
2023/04/30 01:57:52;;;;;;;;;11.25;8.00;;;;;;;;5037385;28;46686;-84
2023/04/30 02:00:17;;;;;;;;;9.67;7.67;;;;;;;;5037475;28;45360;-84
2023/04/30 02:02:43;;;;;;;;;8.00;6.25;;;;;;;;5037868;28;45337;-84
2023/04/30 02:05:08;;;;;;;;;8.00;6.33;;;;;;;;5037438;28;45215;-83
2023/04/30 02:07:38;;;;;;;;;7.50;6.50;;;;;;;;5037331;28;45347;-84
2023/04/30 02:10:04;;;;;;;;;11.50;6.75;;;;;;;;5036853;28;45766;-83
2023/04/30 02:12:29;;;;;;;;;6.25;5.50;;;;;;;;5037303;28;45483;-84
2023/04/30 02:14:55;;;;;;;;;7.00;7.00;;;;;;;;5018461;28;45464;-85
2023/04/30 02:17:20;;;;;;;;;7.25;5.75;;;;;;;;5037004;28;46203;-84
2023/04/30 02:19:45;;;;;;;;;8.00;4.00;;;;;;;;5019361;28;45346;-84
2023/04/30 02:22:10;;;;;;;;;8.00;4.00;;;;;;;;5037214;28;45364;-84
2023/04/30 02:24:36;;;;;;;;;10.00;6.75;;;;;;;;5036931;28;45363;-84
2023/04/30 02:27:01;;;;;;;;;7.33;6.33;;;;;;;;5036972;28;47202;-84
2023/04/30 02:29:26;;;;;;;;;7.75;7.00;;;;;;;;5036760;28;45424;-84
2023/04/30 02:31:51;;;;;;;;;8.75;6.00;;;;;;;;5037180;28;45365;-84
2023/04/30 02:34:17;;;;;;;;;8.00;6.00;;;;;;;;5037067;28;45508;-84
2023/04/30 02:36:42;;;;;;;;;9.00;3.33;;;;;;;;5018933;28;47052;-83
2023/04/30 02:39:07;;;;;;;;;4.67;4.67;;;;;;;;5035278;28;45401;-86
2023/04/30 02:41:33;;;;;;;;;11.25;8.00;;;;;;;;5036982;28;45360;-85
2023/04/30 02:43:58;;;;;;;;;10.00;6.33;;;;;;;;5036893;28;45432;-84
2023/04/30 02:46:23;;;;;;;;;12.00;7.67;;;;;;;;5036549;28;46044;-84
2023/04/30 02:48:48;;;;;;;;;9.00;6.00;;;;;;;;5036880;28;45388;-84
2023/04/30 02:51:13;;;;;;;;;6.00;4.00;;;;;;;;5018958;28;45416;-83
2023/04/30 02:53:39;;;;;;;;;7.00;7.00;;;;;;;;5036328;28;45438;-83
2023/04/30 02:56:04;;;;;;;;;3.33;3.33;;;;;;;;5036245;28;45374;-85
2023/04/30 02:58:29;;;;;;;;;7.50;6.00;;;;;;;;5018277;28;45480;-84
2023/04/30 03:00:55;;;;;;;;;13.00;7.33;;;;;;;;5018713;28;45472;-83
2023/04/30 03:03:20;;;;;;;;;8.50;6.75;;;;;;;;5036779;28;45268;-86
2023/04/30 03:05:45;;;;;;;;;8.00;4.00;;;;;;;;5036849;28;45422;-85
2023/04/30 03:08:11;;;;;;;;;16.67;8.33;;;;;;;;5035959;28;45383;-84
2023/04/30 03:10:36;;;;;;;;;11.25;6.25;;;;;;;;5036500;28;45255;-83
2023/04/30 03:13:02;;;;;;;;;6.00;4.00;;;;;;;;5003171;28;45592;-84
2023/04/30 03:15:27;;;;;;;;;12.00;5.00;;;;;;;;5016511;28;46497;-83
2023/04/30 03:17:52;;;;;;;;;8.67;6.00;;;;;;;;4998778;28;45344;-83
2023/04/30 03:20:17;;;;;;;;;16.67;6.67;;;;;;;;5016773;28;45414;-84
2023/04/30 03:22:42;;;;;;;;;10.50;8.25;;;;;;;;5016037;28;45310;-84
2023/04/30 03:25:08;;;;;;;;;12.00;6.00;;;;;;;;4998612;28;48552;-84
2023/04/30 03:27:33;;;;;;;;;11.75;6.00;;;;;;;;5016389;28;45420;-84
2023/04/30 03:29:59;;;;;;;;;8.25;6.75;;;;;;;;5014313;28;45345;-84
2023/04/30 03:32:24;;;;;;;;;10.67;5.67;;;;;;;;5016421;28;45420;-84
2023/04/30 03:34:49;;;;;;;;;9.33;6.67;;;;;;;;5015941;28;45513;-84
2023/04/30 03:37:14;;;;;;;;;13.25;7.50;;;;;;;;5015976;28;45338;-84
2023/04/30 03:39:40;;;;;;;;;9.33;7.00;;;;;;;;5016279;28;45392;-84
2023/04/30 03:42:05;;;;;;;;;6.75;6.50;;;;;;;;4998180;28;45325;-84
2023/04/30 03:44:30;;;;;;;;;9.00;5.00;;;;;;;;5016037;28;45607;-83
2023/04/30 03:46:55;;;;;;;;;6.00;3.00;;;;;;;;5015998;28;45407;-82
2023/04/30 03:49:21;;;;;;;;;7.75;6.00;;;;;;;;5015591;28;45384;-83
2023/04/30 03:51:46;;;;;;;;;12.75;8.00;;;;;;;;5015550;28;45556;-82
2023/04/30 03:54:11;;;;;;;;;11.67;6.33;;;;;;;;5015700;28;45297;-83
2023/04/30 03:56:36;;;;;;;;;8.25;3.50;;;;;;;;4997950;28;45446;-83
2023/04/30 03:59:02;;;;;;;;;16.67;11.00;;;;;;;;5014740;28;45321;-84
2023/04/30 04:01:30;;;;;;;;;13.67;10.00;;;;;;;;5016090;28;45319;-85
2023/04/30 04:03:55;;;;;;;;;11.00;8.00;;;;;;;;5015754;28;47290;-84
2023/04/30 04:06:21;;;;;;;;;16.50;6.00;;;;;;;;5015533;28;45653;-84
2023/04/30 04:08:46;;;;;;;;;10.00;6.75;;;;;;;;4997851;28;45266;-84
2023/04/30 04:11:11;;;;;;;;;8.67;8.00;;;;;;;;5015904;28;45279;-84
2023/04/30 04:13:37;;;;;;;;;9.75;9.75;;;;;;;;5035319;28;45360;-84
2023/04/30 04:16:02;;;;;;;;;7.67;6.67;;;;;;;;5035722;28;45467;-84
2023/04/30 04:18:27;;;;;;;;;10.67;8.67;;;;;;;;5035721;28;45246;-84
2023/04/30 04:20:53;;;;;;;;;10.00;10.00;;;;;;;;5035371;28;45417;-85
2023/04/30 04:23:18;;;;;;;;;10.75;7.25;;;;;;;;5035876;28;46407;-85
2023/04/30 04:25:46;;;;;;;;;10.33;8.00;;;;;;;;5035569;28;45479;-84
2023/04/30 04:28:11;;;;;;;;;10.00;4.50;;;;;;;;5035650;28;45333;-84
2023/04/30 04:30:36;;;;;;;;;14.00;7.50;;;;;;;;5017548;28;45409;-84
2023/04/30 04:33:02;;;;;;;;;9.00;7.00;;;;;;;;5017613;28;45971;-84
2023/04/30 04:35:27;;;;;;;;;11.33;8.00;;;;;;;;5035205;28;45561;-84
2023/04/30 04:37:52;;;;;;;;;10.67;7.33;;;;;;;;5017295;28;45590;-84
2023/04/30 04:40:18;;;;;;;;;7.75;5.00;;;;;;;;5033609;28;45545;-85
2023/04/30 04:42:43;;;;;;;;;8.75;6.00;;;;;;;;5035230;28;45301;-84
2023/04/30 04:45:08;;;;;;;;;16.67;10.00;;;;;;;;5035042;28;45360;-86
2023/04/30 04:47:34;;;;;;;;;11.00;11.00;;;;;;;;5017309;28;45437;-86
2023/04/30 04:49:59;;;;;;;;;22.00;14.25;;;;;;;;5016781;28;45448;-86
2023/04/30 04:52:24;;;;;;;;;23.33;17.67;;;;;;;;5035104;28;46403;-86
2023/04/30 04:54:50;;;;;;;;;25.33;17.00;;;;;;;;5035059;28;45344;-85
2023/04/30 04:57:15;;;;;;;;;16.50;6.75;;;;;;;;5035312;28;45458;-84
2023/04/30 04:59:40;;;;;;;;;19.33;15.00;;;;;;;;5035011;28;45577;-85
2023/04/30 05:02:05;;;;;;;;;18.00;13.00;;;;;;;;5018627;28;47044;-83
2023/04/30 05:04:31;;;;;;;;;23.33;15.00;;;;;;;;5038133;28;45379;-84
2023/04/30 05:06:56;;;;;;;;;30.67;21.33;;;;;;;;5038360;28;45246;-84
2023/04/30 05:09:21;;;;;;;;;23.33;17.33;;;;;;;;5020242;28;45417;-83
2023/04/30 05:11:47;;;;;;;;;16.33;13.33;;;;;;;;5033292;28;45630;-85
2023/04/30 05:14:13;;;;;;;;;23.25;21.00;;;;;;;;5018488;28;45393;-84
2023/04/30 05:16:38;;;;;;;;;28.00;20.50;;;;;;;;5018669;28;45454;-84
2023/04/30 05:19:04;;;;;;;;;26.25;21.75;;;;;;;;5018011;28;45467;-84
2023/04/30 05:21:30;;;;;;;;;18.50;11.75;;;;;;;;5018272;28;47041;-85
2023/04/30 05:23:56;;;;;;;;;28.00;15.25;;;;;;;;5018137;28;45733;-84
2023/04/30 05:26:23;;;;;;;;;19.00;14.67;;;;;;;;5018526;28;45314;-83
2023/04/30 05:28:48;;;;;;;;;18.75;13.75;;;;;;;;5018075;28;45265;-83
2023/04/30 05:31:13;;;;;;;;;20.67;15.33;;;;;;;;5018165;28;46032;-83
2023/04/30 05:33:39;;;;;;;;;20.33;15.33;;;;;;;;5017682;28;45387;-85
2023/04/30 05:36:05;;;;;;;;;16.50;11.75;;;;;;;;5018151;28;45410;-85
2023/04/30 05:38:30;;;;;;;;;16.00;15.50;;;;;;;;5017985;28;45338;-83
2023/04/30 05:40:55;;;;;;;;;17.33;17.33;;;;;;;;5018071;28;45378;-85
2023/04/30 05:43:20;;;;;;;;;22.67;15.00;;;;;;;;5017979;28;45460;-82
2023/04/30 05:45:45;;;;;;;;;19.67;13.67;;;;;;;;5017829;28;45150;-83
2023/04/30 05:48:11;;;;;;;;;14.25;13.25;;;;;;;;5017547;28;45241;-83
2023/04/30 05:50:36;;;;;;;;;24.00;20.00;;;;;;;;4999775;28;48119;-82
2023/04/30 05:53:01;;;;;;;;;16.00;11.33;;;;;;;;5017697;28;45397;-85
2023/04/30 05:55:26;;;;;;;;;22.33;15.67;;;;;;;;5017889;28;45342;-83
2023/04/30 05:57:52;;;;;;;;;20.00;13.33;;;;;;;;5017789;28;45255;-85
2023/04/30 06:00:17;;;;;;;;;30.50;15.25;;;;;;;;5017527;28;45401;-84
2023/04/30 06:02:42;;;;;;;;;27.00;20.25;;;;;;;;5017223;28;45228;-85
2023/04/30 06:05:08;;;;;;;;;18.33;12.33;;;;;;;;5017636;28;45429;-85
2023/04/30 06:07:33;;;;;;;;;26.00;16.75;;;;;;;;5017749;28;45330;-85
2023/04/30 06:09:58;;;;;;;;;15.67;12.33;;;;;;;;5033975;28;45682;-85
2023/04/30 06:12:23;;;;;;;;;16.00;8.67;;;;;;;;5037215;28;45417;-86
2023/04/30 06:14:48;;;;;;;;;25.33;17.33;;;;;;;;5037738;28;45321;-85
2023/04/30 06:17:16;;;;;;;;;20.50;11.25;;;;;;;;5037039;28;45407;-86
2023/04/30 06:19:41;;;;;;;;;16.50;12.50;;;;;;;;5018831;28;46373;-86
2023/04/30 06:22:06;;;;;;;;;20.33;13.67;;;;;;;;5019116;28;45421;-85
2023/04/30 06:24:42;;;;;;;;;13.67;11.00;;;;;;;;5038161;28;45410;-93
2023/04/30 06:27:07;;;;;;;;;14.50;13.25;;;;;;;;5017813;28;45429;-94
2023/04/30 06:30:11;;;;;;;;;17.75;16.00;;;;;;;;5044725;28;45316;-96
2023/04/30 06:32:36;;;;;;;;;22.50;13.00;;;;;;;;5019886;28;45362;-90
2023/04/30 06:35:02;;;;;;;;;17.33;14.33;;;;;;;;5037137;28;45376;-90
2023/04/30 06:37:27;;;;;;;;;16.67;12.00;;;;;;;;5020868;28;45438;-94
2023/04/30 06:39:52;;;;;;;;;20.00;11.67;;;;;;;;5038218;28;47325;-92
2023/04/30 06:42:17;;;;;;;;;17.00;12.00;;;;;;;;5020870;28;46057;-91
2023/04/30 06:45:24;;;;;;;;;16.33;10.67;;;;;;;;5022951;28;45432;-95
2023/04/30 06:51:29;;;;;;;;;22.25;13.00;;;;;;;;4958739;28;46976;-95
2023/04/30 06:54:25;;;;;;;;;20.00;15.50;;;;;;;;4959168;28;45498;-94
2023/04/30 07:03:18;;;;;;;;;20.75;15.25;;;;;;;;4957154;28;45604;-93
2023/04/30 07:06:07;;;;;;;;;23.50;15.25;;;;;;;;4957430;28;45051;-94
2023/04/30 07:12:10;;;;;;;;;14.00;12.00;;;;;;;;4957260;28;45568;-95
2023/04/30 07:14:36;;;;;;;;;16.25;13.25;;;;;;;;4958037;28;46614;-94
2023/04/30 08:18:14;;;;;;;;;17.50;15.00;;;;;;;;5279641;22;46101;-91
2023/04/30 08:24:21;;;;;;;;;15.75;10.25;;;;;;;;5009623;28;45204;-96
2023/04/30 08:30:35;;;;;;;;;18.00;12.75;;;;;;;;4947165;28;46253;-93
2023/04/30 08:33:24;;;;;;;;;19.50;10.25;;;;;;;;4940725;28;45759;-95
2023/04/30 08:35:49;;;;;;;;;14.50;10.25;;;;;;;;4862399;29;45483;-91
2023/04/30 08:38:20;;;;;;;;;17.50;11.00;;;;;;;;4865325;29;45663;-94
2023/04/30 08:40:55;;;;;;;;;19.75;14.00;;;;;;;;4850700;29;47023;-92
2023/04/30 08:43:21;;;;;;;;;17.00;10.75;;;;;;;;4848750;29;45249;-89
2023/04/30 08:45:49;;;;;;;;;12.25;10.50;;;;;;;;4864941;29;45488;-91
2023/04/30 08:51:05;;;;;;;;;13.75;10.75;;;;;;;;4828937;29;45605;-90
2023/04/30 08:53:33;;;;;;;;;16.00;10.33;;;;;;;;4815828;29;45407;-90
2023/04/30 08:59:04;;;;;;;;;22.75;15.75;;;;;;;;4772318;29;45373;-88
2023/04/30 09:01:29;;;;;;;;;16.00;11.33;;;;;;;;4770322;29;45631;-88
2023/04/30 09:03:55;;;;;;;;;10.25;4.00;;;;;;;;4771013;29;45536;-86
2023/04/30 09:06:20;;;;;;;;;16.25;11.00;;;;;;;;4771296;29;45402;-87
2023/04/30 09:08:47;;;;;;;;;18.75;11.00;;;;;;;;4756518;29;45652;-88
2023/04/30 09:11:29;;;;;;;;;13.25;10.50;;;;;;;;4771210;29;46465;-86
2023/04/30 09:14:02;;;;;;;;;15.25;11.50;;;;;;;;4859600;29;45387;-95
2023/04/30 09:19:23;;;;;;;;;10.50;9.00;;;;;;;;4808598;29;45275;-83
2023/04/30 09:21:48;;;;;;;;;17.00;9.75;;;;;;;;4787913;29;47385;-84
2023/04/30 09:24:16;;;;;;;;;13.00;10.33;;;;;;;;4800472;29;45426;-87
2023/04/30 09:26:45;;;;;;;;;17.50;10.00;;;;;;;;4806649;29;45356;-85
2023/04/30 09:29:11;;;;;;;;;11.00;9.00;;;;;;;;4840174;29;45587;-86
2023/04/30 09:31:43;;;;;;;;;16.50;12.25;;;;;;;;4843269;29;47192;-87
2023/04/30 09:34:09;;;;;;;;;17.75;11.00;;;;;;;;4843294;29;45569;-83
2023/04/30 09:36:34;;;;;;;;;13.50;11.00;;;;;;;;4893160;28;45329;-87
2023/04/30 09:39:06;;;;;;;;;8.75;6.25;;;;;;;;4916033;28;45591;-84
2023/04/30 09:41:31;;;;;;;;;18.25;11.75;;;;;;;;4917805;28;46461;-83
2023/04/30 09:43:57;;;;;;;;;12.67;9.00;;;;;;;;4917724;28;45345;-83
2023/04/30 09:46:37;;;;;;;;;11.00;7.00;;;;;;;;4917510;28;45587;-88
2023/04/30 09:49:06;;;;;;;;;13.25;9.50;;;;;;;;4900991;28;45502;-86
2023/04/30 09:51:31;;;;;;;;;16.75;8.25;;;;;;;;4918668;28;47189;-85
2023/04/30 09:53:56;;;;;;;;;15.67;9.67;;;;;;;;4902199;28;46119;-86
2023/04/30 09:56:23;;;;;;;;;13.25;7.50;;;;;;;;4960691;28;45517;-84
2023/04/30 09:58:58;;;;;;;;;11.75;8.50;;;;;;;;4981149;28;45579;-85
2023/04/30 10:01:26;;;;;;;;;11.00;7.00;;;;;;;;4986157;28;46948;-87
2023/04/30 10:03:52;;;;;;;;;13.00;7.50;;;;;;;;4983571;28;45446;-84
2023/04/30 10:06:19;;;;;;;;;13.75;10.00;;;;;;;;4987958;28;45599;-85
2023/04/30 10:08:50;;;;;;;;;13.75;11.00;;;;;;;;4985912;28;45585;-87
2023/04/30 10:11:20;;;;;;;;;14.75;10.25;;;;;;;;4970909;28;47302;-87
2023/04/30 10:13:53;;;;;;;;;9.50;7.00;;;;;;;;5001223;28;45360;-85
2023/04/30 10:16:33;;;;;;;;;8.75;6.75;;;;;;;;4980542;28;45438;-82
2023/04/30 10:19:19;;;;;;;;;6.00;6.00;;;;;;;;4979013;28;45427;-91
2023/04/30 10:21:46;;;;;;;;;13.25;9.75;;;;;;;;5000970;28;45294;-88
2023/04/30 10:24:17;;;;;;;;;16.50;9.75;;;;;;;;4999437;28;45699;-93
2023/04/30 10:26:46;;;;;;;;;15.25;8.25;;;;;;;;4982572;28;45283;-90
2023/04/30 10:29:17;;;;;;;;;12.50;8.75;;;;;;;;4983065;28;45559;-91
2023/04/30 10:31:45;;;;;;;;;9.25;6.00;;;;;;;;5006193;28;45887;-89
2023/04/30 10:34:18;;;;;;;;;12.00;8.00;;;;;;;;5016420;28;45808;-88
2023/04/30 10:36:47;;;;;;;;;7.00;7.00;;;;;;;;4996664;28;44730;-87
2023/04/30 10:39:13;;;;;;;;;7.50;5.00;;;;;;;;4997878;28;45452;-88
2023/04/30 10:41:43;;;;;;;;;9.50;7.25;;;;;;;;5002785;28;45444;-91
2023/04/30 10:44:09;;;;;;;;;9.00;6.00;;;;;;;;4981364;28;45333;-85
2023/04/30 10:46:34;;;;;;;;;6.33;4.00;;;;;;;;4980796;28;45455;-88
2023/04/30 10:49:00;;;;;;;;;5.50;5.25;;;;;;;;4997341;28;45528;-85
2023/04/30 10:51:43;;;;;;;;;6.75;5.00;;;;;;;;4997642;28;45969;-90
2023/04/30 10:54:08;;;;;;;;;8.25;5.00;;;;;;;;4997880;28;45474;-88
2023/04/30 10:56:34;;;;;;;;;10.00;5.25;;;;;;;;4981216;28;45517;-87
2023/04/30 10:59:01;;;;;;;;;7.00;5.00;;;;;;;;4997354;28;45279;-87
2023/04/30 11:01:27;;;;;;;;;7.25;7.00;;;;;;;;4997174;28;47500;-85
2023/04/30 11:04:06;;;;;;;;;5.25;5.25;;;;;;;;4996750;28;45380;-86
2023/04/30 11:06:50;;;;;;;;;10.00;8.00;;;;;;;;4979124;28;45499;-87
2023/04/30 11:09:15;;;;;;;;;8.75;5.00;;;;;;;;4997275;28;45330;-86
2023/04/30 11:11:42;;;;;;;;;12.25;4.00;;;;;;;;4978921;28;46496;-85
2023/04/30 11:14:10;;;;;;;;;7.50;4.00;;;;;;;;4997085;28;45295;-88
2023/04/30 11:16:38;;;;;;;;;6.00;3.75;;;;;;;;4978943;28;45439;-86
2023/04/30 11:19:10;;;;;;;;;7.00;3.75;;;;;;;;4979046;28;45773;-86
2023/04/30 11:21:41;;;;;;;;;6.00;3.50;;;;;;;;4998080;28;45220;-89
2023/04/30 11:24:18;;;;;;;;;3.00;2.25;;;;;;;;4997881;28;45627;-91
2023/04/30 11:27:07;;;;;;;;;3.00;3.00;;;;;;;;4985896;28;45227;-90
2023/04/30 11:29:33;;;;;;;;;5.00;5.00;;;;;;;;4997344;28;45525;-90
2023/04/30 11:32:53;;;;;;;;;;;;;;;;;;;;;
2023/04/30 11:47:06;;;;;;;;;3.75;3.75;;;;;;;;4896611;28;45445;-95
2023/04/30 11:49:55;;;;;;;;;7.00;3.75;;;;;;;;4887413;29;45550;-96
2023/04/30 11:56:01;;;;;;;;;4.00;3.00;;;;;;;;4815535;29;46469;-95
2023/04/30 12:05:05;;;;;;;;;1.75;1.50;;;;;;;;4749797;29;45557;-89
2023/04/30 12:07:31;;;;;;;;;3.00;2.50;;;;;;;;4750349;29;45632;-89
2023/04/30 12:10:14;;;;;;;;;3.75;3.75;;;;;;;;4750152;29;45469;-90
2023/04/30 12:13:10;;;;;;;;;;;;;;;;;;;;;
2023/04/30 12:15:38;;;;;;;;;2.00;2.00;;;;;;;;4736647;29;71425;-95
2023/04/30 12:18:32;;;;;;;;;3.75;3.00;;;;;;;;4754602;29;46697;-90
2023/04/30 12:21:08;;;;;;;;;3.00;3.00;;;;;;;;4749551;29;45289;-90
2023/04/30 12:23:34;;;;;;;;;2.50;2.00;;;;;;;;4785986;29;45522;-95
2023/04/30 12:26:01;;;;;;;;;4.50;2.25;;;;;;;;4846020;29;45520;-92
2023/04/30 12:28:27;;;;;;;;;2.00;2.00;;;;;;;;4847505;29;46583;-91
2023/04/30 12:30:52;;;;;;;;;1.50;1.50;;;;;;;;4850107;29;46654;-89
2023/04/30 12:33:17;;;;;;;;;3.50;3.00;;;;;;;;4862399;29;46122;-88
2023/04/30 12:35:43;;;;;;;;;6.00;3.25;;;;;;;;4892296;28;45459;-90
2023/04/30 12:38:08;;;;;;;;;3.75;2.75;;;;;;;;4914901;28;47462;-91
2023/04/30 12:40:34;;;;;;;;;2.50;1.75;;;;;;;;4940456;28;45313;-88
2023/04/30 12:43:00;;;;;;;;;4.00;2.00;;;;;;;;5028171;28;45271;-89
2023/04/30 12:45:45;;;;;;;;;2.50;2.00;;;;;;;;5038240;28;45502;-87
2023/04/30 12:48:10;;;;;;;;;4.75;3.50;;;;;;;;5002826;28;47588;-89
2023/04/30 12:50:37;;;;;;;;;4.75;3.00;;;;;;;;5025413;28;45483;-88
2023/04/30 12:53:02;;;;;;;;;5.00;3.00;;;;;;;;5034007;28;45333;-88
2023/04/30 12:55:28;;;;;;;;;8.00;4.00;;;;;;;;5037267;28;45585;-89
2023/04/30 12:58:07;;;;;;;;;5.50;4.00;;;;;;;;5038157;28;45419;-87
2023/04/30 13:00:44;;;;;;;;;3.75;3.00;;;;;;;;5024877;28;45479;-85
2023/04/30 13:03:13;;;;;;;;;13.00;10.25;;;;;;;;5030418;28;45501;-85
2023/04/30 13:05:40;;;;;;;;;348.50;347.50;;;;;;;;5018560;28;45557;-81
2023/04/30 13:08:05;;;;;;;;;6.00;4.00;;;;;;;;5023707;28;46562;-85
2023/04/30 13:10:31;;;;;;;;;5.75;4.00;;;;;;;;5035875;28;45473;-83
2023/04/30 13:12:56;;;;;;;;;5.25;4.00;;;;;;;;5033966;28;45491;-83
2023/04/30 13:15:21;;;;;;;;;5.00;3.00;;;;;;;;5035022;28;45419;-83
2023/04/30 13:17:47;;;;;;;;;5.00;3.67;;;;;;;;5028654;28;47318;-83
2023/04/30 13:20:12;;;;;;;;;5.00;4.00;;;;;;;;5022155;28;45675;-82
2023/04/30 13:22:38;;;;;;;;;3.25;3.25;;;;;;;;5021583;28;45437;-83
2023/04/30 13:25:03;;;;;;;;;6.50;3.50;;;;;;;;5028002;28;45425;-81
2023/04/30 13:27:28;;;;;;;;;3.75;3.75;;;;;;;;5024094;28;45365;-83
2023/04/30 13:29:53;;;;;;;;;5.00;2.00;;;;;;;;5031093;28;45223;-83
2023/04/30 13:32:18;;;;;;;;;2.33;2.33;;;;;;;;5038110;28;45464;-84
2023/04/30 13:34:44;;;;;;;;;4.33;3.00;;;;;;;;5030924;28;45378;-84
2023/04/30 13:37:09;;;;;;;;;4.00;3.00;;;;;;;;5020040;28;46266;-82
2023/04/30 13:39:34;;;;;;;;;2.00;2.00;;;;;;;;5028889;28;45746;-83
2023/04/30 13:42:00;;;;;;;;;2.33;2.33;;;;;;;;5023488;28;45368;-81
2023/04/30 13:44:25;;;;;;;;;3.50;3.50;;;;;;;;5018366;28;45546;-82
2023/04/30 13:46:51;;;;;;;;;4.00;3.25;;;;;;;;5033696;28;47041;-82
2023/04/30 13:49:16;;;;;;;;;5.00;3.33;;;;;;;;5029525;28;45446;-83
2023/04/30 13:51:41;;;;;;;;;3.00;2.67;;;;;;;;5029034;28;45293;-80
2023/04/30 13:54:06;;;;;;;;;5.00;2.00;;;;;;;;5025043;28;45349;-82
2023/04/30 13:56:31;;;;;;;;;3.67;3.67;;;;;;;;5019623;28;46648;-83
2023/04/30 13:58:57;;;;;;;;;2.50;2.50;;;;;;;;5017395;28;45362;-83
2023/04/30 14:01:22;;;;;;;;;3.67;3.33;;;;;;;;5017797;28;45378;-84
2023/04/30 14:03:47;;;;;;;;;7.67;4.00;;;;;;;;5020672;28;45566;-82
2023/04/30 14:06:12;;;;;;;;;5.67;2.00;;;;;;;;5030866;28;45523;-80
2023/04/30 14:08:37;;;;;;;;;5.67;2.33;;;;;;;;5034486;28;45618;-82
2023/04/30 14:11:03;;;;;;;;;2.33;2.00;;;;;;;;4999492;28;45274;-83
2023/04/30 14:13:28;;;;;;;;;3.33;3.00;;;;;;;;5017697;28;45584;-86
2023/04/30 14:15:54;;;;;;;;;6.25;3.00;;;;;;;;5026146;28;47288;-85
2023/04/30 14:18:21;;;;;;;;;7.50;3.25;;;;;;;;5035222;28;45795;-85
2023/04/30 14:20:46;;;;;;;;;3.50;3.50;;;;;;;;5014794;28;45455;-83
2023/04/30 14:23:12;;;;;;;;;4.50;3.50;;;;;;;;5018042;28;45388;-83
2023/04/30 14:25:37;;;;;;;;;6.00;3.00;;;;;;;;5036536;28;45678;-84
2023/04/30 14:28:02;;;;;;;;;5.67;3.00;;;;;;;;5017202;28;45745;-86
2023/04/30 14:30:28;;;;;;;;;4.00;3.00;;;;;;;;5025768;28;45389;-85
2023/04/30 14:32:53;;;;;;;;;3.00;2.25;;;;;;;;5019071;28;45444;-88
2023/04/30 14:35:18;;;;;;;;;6.50;3.00;;;;;;;;5036902;28;45783;-87
2023/04/30 14:37:44;;;;;;;;;3.50;2.25;;;;;;;;5022071;28;45498;-83
2023/04/30 14:40:09;;;;;;;;;2.67;2.67;;;;;;;;5021209;28;45461;-85
2023/04/30 14:42:34;;;;;;;;;6.50;2.00;;;;;;;;5031166;28;45543;-82
2023/04/30 14:44:59;;;;;;;;;2.67;2.00;;;;;;;;5029553;28;46284;-83
2023/04/30 14:47:26;;;;;;;;;2.00;2.00;;;;;;;;5007691;28;45488;-85
2023/04/30 14:49:52;;;;;;;;;4.50;2.00;;;;;;;;5036171;28;45568;-85
2023/04/30 14:52:18;;;;;;;;;1.50;1.50;;;;;;;;5019483;28;45575;-85
2023/04/30 14:54:44;;;;;;;;;2.00;2.00;;;;;;;;5037300;28;45952;-86
2023/04/30 14:57:09;;;;;;;;;3.00;1.25;;;;;;;;5037214;28;45507;-87
2023/04/30 14:59:34;;;;;;;;;4.00;2.00;;;;;;;;5036953;28;45577;-86
2023/04/30 15:02:00;;;;;;;;;2.25;2.00;;;;;;;;5036911;28;45267;-87
2023/04/30 15:04:25;;;;;;;;;3.67;3.00;;;;;;;;5028334;28;45365;-89
2023/04/30 15:06:50;;;;;;;;;5.00;3.00;;;;;;;;4999457;28;45790;-83
2023/04/30 15:09:16;;;;;;;;;4.75;3.00;;;;;;;;5016352;28;45595;-81
2023/04/30 15:11:41;;;;;;;;;3.33;2.00;;;;;;;;5002577;28;45483;-83
2023/04/30 15:14:06;;;;;;;;;2.00;2.00;;;;;;;;5032990;28;47294;-87
2023/04/30 15:16:32;;;;;;;;;2.50;2.00;;;;;;;;5037554;28;45369;-90
2023/04/30 15:18:57;;;;;;;;;3.50;2.00;;;;;;;;5032255;28;45962;-88
2023/04/30 15:21:23;;;;;;;;;3.00;3.00;;;;;;;;5037254;28;45341;-88
2023/04/30 15:23:49;;;;;;;;;4.33;3.00;;;;;;;;5020103;28;46474;-91
2023/04/30 15:26:14;;;;;;;;;3.75;2.00;;;;;;;;5016593;28;45575;-87
2023/04/30 15:28:43;;;;;;;;;2.00;2.00;;;;;;;;5004134;28;45334;-96
2023/04/30 15:31:10;;;;;;;;;2.00;2.00;;;;;;;;5003182;28;45505;-95
2023/04/30 15:33:40;;;;;;;;;4.00;3.00;;;;;;;;5018441;28;46221;-93
2023/04/30 15:36:06;;;;;;;;;5.75;1.75;;;;;;;;5025521;28;46794;-87
2023/04/30 15:38:31;;;;;;;;;2.00;2.00;;;;;;;;5016665;28;45428;-87
2023/04/30 15:40:56;;;;;;;;;3.33;2.00;;;;;;;;5017085;28;45552;-86
2023/04/30 15:43:24;;;;;;;;;3.67;1.33;;;;;;;;5016611;28;45785;-87
2023/04/30 15:45:49;;;;;;;;;2.50;2.50;;;;;;;;5018072;28;45887;-88
2023/04/30 15:48:14;;;;;;;;;4.00;2.67;;;;;;;;5020491;28;45392;-92
2023/04/30 15:50:40;;;;;;;;;2.00;2.00;;;;;;;;5018997;28;45384;-91
2023/04/30 15:53:05;;;;;;;;;4.75;2.00;;;;;;;;5008322;28;47406;-86
2023/04/30 15:55:32;;;;;;;;;3.75;2.00;;;;;;;;5016959;28;45283;-88
2023/04/30 15:57:58;;;;;;;;;2.00;2.00;;;;;;;;5021144;28;45302;-84
2023/04/30 16:00:23;;;;;;;;;2.00;1.00;;;;;;;;5021413;28;45453;-78
2023/04/30 16:02:48;;;;;;;;;2.50;2.00;;;;;;;;5021557;28;47358;-80
2023/04/30 16:05:14;;;;;;;;;2.67;1.00;;;;;;;;5019201;28;45278;-81
2023/04/30 16:07:40;;;;;;;;;5.33;2.00;;;;;;;;5026022;28;45566;-83
2023/04/30 16:10:05;;;;;;;;;2.75;2.00;;;;;;;;5007211;28;45535;-80
2023/04/30 16:12:33;;;;;;;;;1.00;1.00;;;;;;;;5025558;28;46090;-79
2023/04/30 16:14:58;;;;;;;;;2.50;1.75;;;;;;;;5027819;28;45549;-83
2023/04/30 16:17:23;;;;;;;;;1.25;1.25;;;;;;;;5021725;28;45345;-82
2023/04/30 16:19:56;;;;;;;;;1.50;1.50;;;;;;;;5031573;28;45437;-83
2023/04/30 16:22:21;;;;;;;;;2.25;1.00;;;;;;;;5030604;28;46479;-83
2023/04/30 16:24:46;;;;;;;;;1.00;1.00;;;;;;;;5003726;28;45586;-83
2023/04/30 16:27:12;;;;;;;;;2.33;2.00;;;;;;;;5029015;28;45479;-83
2023/04/30 16:29:37;;;;;;;;;13.67;11.00;;;;;;;;5028220;28;45437;-80
2023/04/30 16:32:02;;;;;;;;;20.67;16.33;;;;;;;;5018983;28;45428;-81